Time;durP1;ratioP1;P1;durP2;ratioP2;P2;SDS_P1;SDS_P2;PMS_P1;PMS_P2;Temp;Humidity;BMP_temperature;BMP_pressure;BME280_temperature;BME280_humidity;BME280_pressure;Samples;Min_cycle;Max_cycle;Signal;HPM_P1;HPM_P2
2021/08/30 00:01:09;;;;;;;19.13;16.87;;;15.80;99.90;;;;;;5019464;28;20637;-64
2021/08/30 00:03:38;;;;;;;20.10;17.93;;;15.90;99.90;;;;;;5017670;28;20635;-64
2021/08/30 00:06:07;;;;;;;20.80;17.67;;;15.80;99.90;;;;;;5022954;28;20237;-64
2021/08/30 00:08:35;;;;;;;19.43;17.40;;;15.80;99.90;;;;;;5018061;28;20233;-64
2021/08/30 00:11:03;;;;;;;19.23;16.77;;;15.80;99.90;;;;;;5023492;28;20321;-64
2021/08/30 00:13:32;;;;;;;19.27;17.17;;;15.80;99.90;;;;;;5023217;28;20239;-64
2021/08/30 00:16:01;;;;;;;18.77;16.77;;;15.90;99.90;;;;;;5025409;28;20328;-64
2021/08/30 00:18:30;;;;;;;19.40;17.03;;;15.90;99.90;;;;;;5021951;28;20719;-64
2021/08/30 00:20:59;;;;;;;20.13;17.20;;;15.90;99.90;;;;;;5024056;28;20228;-64
2021/08/30 00:23:27;;;;;;;19.50;17.47;;;15.90;99.90;;;;;;5022288;28;20264;-64
2021/08/30 00:25:55;;;;;;;20.30;17.47;;;15.80;99.90;;;;;;5017291;28;20233;-64
2021/08/30 00:28:23;;;;;;;20.10;17.53;;;15.80;99.90;;;;;;5024630;28;20753;-63
2021/08/30 00:30:51;;;;;;;19.80;17.70;;;15.80;99.90;;;;;;5016047;28;20244;-64
2021/08/30 00:33:21;;;;;;;20.30;17.40;;;15.90;99.90;;;;;;5023942;28;20232;-64
2021/08/30 00:35:49;;;;;;;21.23;17.67;;;15.90;99.90;;;;;;5021380;28;20355;-64
2021/08/30 00:38:17;;;;;;;19.87;17.53;;;15.80;99.90;;;;;;5016507;28;20236;-64
2021/08/30 00:40:45;;;;;;;29.57;18.13;;;15.90;99.90;;;;;;5016408;28;20232;-65
2021/08/30 00:43:13;;;;;;;19.07;17.17;;;15.80;99.90;;;;;;5021532;28;20235;-64
2021/08/30 00:45:42;;;;;;;19.53;17.53;;;15.80;99.90;;;;;;5020924;28;20596;-64
2021/08/30 00:48:10;;;;;;;18.50;16.57;;;15.90;99.90;;;;;;5018609;28;20254;-64
2021/08/30 00:50:40;;;;;;;18.47;16.57;;;15.80;99.90;;;;;;5025192;28;20228;-64
2021/08/30 00:53:08;;;;;;;19.33;17.17;;;15.90;99.90;;;;;;5022409;28;20229;-64
2021/08/30 00:55:36;;;;;;;18.50;16.50;;;15.80;99.90;;;;;;5017917;28;20233;-64
2021/08/30 00:58:05;;;;;;;18.87;16.90;;;15.80;99.90;;;;;;5016040;28;20337;-64
2021/08/30 01:00:33;;;;;;;18.00;16.20;;;15.80;99.90;;;;;;5021818;28;20231;-64
2021/08/30 01:03:01;;;;;;;18.43;16.60;;;15.80;99.90;;;;;;5017014;28;20257;-65
2021/08/30 01:05:30;;;;;;;19.17;17.30;;;15.80;99.90;;;;;;5023552;28;20236;-64
2021/08/30 01:08:05;;;;;;;20.07;17.37;;;15.80;99.90;;;;;;5019368;28;20324;-64
2021/08/30 01:10:42;;;;;;;17.97;16.07;;;15.80;99.90;;;;;;5026791;28;20318;-64
2021/08/30 01:13:13;;;;;;;17.80;15.90;;;15.90;99.90;;;;;;5023420;28;20315;-64
2021/08/30 01:15:44;;;;;;;21.93;17.63;;;16.00;99.90;;;;;;5021254;28;20755;-64
2021/08/30 01:18:19;;;;;;;21.67;17.37;;;15.90;99.90;;;;;;5019559;28;20585;-64
2021/08/30 01:21:02;;;;;;;18.17;16.37;;;15.90;99.90;;;;;;5021219;28;20617;-64
2021/08/30 01:23:36;;;;;;;18.63;16.63;;;15.90;99.90;;;;;;5020357;28;20259;-64
2021/08/30 01:26:06;;;;;;;20.20;16.93;;;15.90;99.90;;;;;;5017832;28;20570;-64
2021/08/30 01:28:38;;;;;;;18.93;16.93;;;15.90;99.90;;;;;;5022448;28;20225;-64
2021/08/30 01:31:14;;;;;;;19.23;17.33;;;15.90;99.90;;;;;;5018725;28;20241;-64
2021/08/30 01:33:46;;;;;;;20.67;18.10;;;15.90;99.90;;;;;;5019563;28;20331;-64
2021/08/30 01:36:14;;;;;;;18.90;16.90;;;15.90;99.90;;;;;;5021643;28;20247;-64
2021/08/30 01:38:45;;;;;;;19.60;17.50;;;16.00;99.90;;;;;;5027373;28;20291;-63
2021/08/30 01:41:16;;;;;;;21.90;17.30;;;15.90;99.90;;;;;;5023486;28;20283;-64
2021/08/30 01:43:45;;;;;;;21.07;17.97;;;15.90;99.90;;;;;;5017920;28;20720;-64
2021/08/30 01:46:16;;;;;;;20.57;18.40;;;15.90;99.90;;;;;;5023250;28;20720;-64
2021/08/30 01:48:49;;;;;;;18.97;16.90;;;15.90;99.90;;;;;;5019029;28;20236;-64
2021/08/30 01:51:21;;;;;;;23.43;19.53;;;15.90;99.90;;;;;;5019574;28;20307;-64
2021/08/30 01:53:51;;;;;;;20.33;18.20;;;15.90;99.90;;;;;;5024862;28;20330;-64
2021/08/30 01:56:21;;;;;;;21.73;18.93;;;15.90;99.90;;;;;;5023427;28;20224;-64
2021/08/30 02:01:37;;;;;;;21.87;18.40;;;15.90;99.90;;;;;;5024040;28;20236;-64
2021/08/30 02:04:07;;;;;;;20.00;17.97;;;16.00;99.90;;;;;;5028400;28;20557;-64
2021/08/30 02:06:35;;;;;;;21.13;18.83;;;16.00;99.90;;;;;;5029656;28;20963;-64
2021/08/30 02:09:05;;;;;;;22.40;18.27;;;15.90;99.90;;;;;;5022125;28;20236;-64
2021/08/30 02:11:34;;;;;;;21.90;17.70;;;15.90;99.90;;;;;;5026752;28;20308;-64
2021/08/30 02:14:07;;;;;;;20.30;18.17;;;16.00;99.90;;;;;;5024524;28;20233;-64
2021/08/30 02:16:35;;;;;;;19.90;17.77;;;15.90;99.90;;;;;;5025038;28;20650;-64
2021/08/30 02:19:12;;;;;;;20.47;18.10;;;16.00;99.90;;;;;;5021314;28;20709;-64
2021/08/30 02:21:44;;;;;;;20.93;18.73;;;16.00;99.90;;;;;;5022252;28;20266;-64
2021/08/30 02:24:19;;;;;;;20.43;18.27;;;15.90;99.90;;;;;;5026168;28;20236;-64
2021/08/30 02:26:51;;;;;;;19.37;17.37;;;15.90;99.90;;;;;;5019264;28;20328;-64
2021/08/30 02:29:24;;;;;;;19.07;17.07;;;15.90;99.90;;;;;;5020642;28;20267;-64
2021/08/30 02:31:56;;;;;;;20.40;18.40;;;16.00;99.90;;;;;;5020416;28;20655;-64
2021/08/30 02:34:29;;;;;;;19.10;17.10;;;15.90;99.90;;;;;;5022577;28;20237;-64
2021/08/30 02:36:59;;;;;;;18.17;16.47;;;16.00;99.90;;;;;;5027561;28;20251;-63
2021/08/30 02:39:29;;;;;;;18.30;16.43;;;16.00;99.90;;;;;;5025745;28;20600;-63
2021/08/30 02:41:59;;;;;;;19.07;17.13;;;15.90;99.90;;;;;;5023447;28;20303;-64
2021/08/30 02:44:27;;;;;;;18.60;16.70;;;15.90;99.90;;;;;;5023751;28;20248;-64
2021/08/30 02:46:56;;;;;;;19.53;17.60;;;15.90;99.90;;;;;;5025490;28;20652;-63
2021/08/30 02:49:26;;;;;;;17.73;16.00;;;15.90;99.90;;;;;;5020070;28;20225;-64
2021/08/30 02:51:58;;;;;;;17.70;15.87;;;15.90;99.90;;;;;;5018223;28;20323;-64
2021/08/30 02:54:27;;;;;;;17.37;15.63;;;15.90;99.90;;;;;;5020513;28;20735;-63
2021/08/30 02:56:55;;;;;;;18.00;16.03;;;15.90;99.90;;;;;;5022828;28;20715;-64
2021/08/30 02:59:23;;;;;;;17.90;16.00;;;15.90;99.90;;;;;;5021969;28;20655;-64
2021/08/30 03:01:52;;;;;;;17.60;15.87;;;15.90;99.90;;;;;;5023935;28;20231;-64
2021/08/30 03:04:21;;;;;;;19.70;16.53;;;15.80;99.90;;;;;;5022234;28;20249;-64
2021/08/30 03:06:52;;;;;;;18.67;16.67;;;15.80;99.90;;;;;;5027015;28;20323;-64
2021/08/30 03:09:20;;;;;;;18.80;16.90;;;15.80;99.90;;;;;;5017131;28;20311;-64
2021/08/30 03:11:50;;;;;;;18.50;16.60;;;15.70;99.90;;;;;;5023532;28;20232;-64
2021/08/30 03:14:22;;;;;;;18.93;17.03;;;15.70;99.90;;;;;;5016803;28;20286;-64
2021/08/30 03:16:53;;;;;;;19.77;16.70;;;15.60;99.90;;;;;;5024531;28;20264;-64
2021/08/30 03:19:22;;;;;;;19.23;16.33;;;15.60;99.90;;;;;;5022531;28;20603;-63
2021/08/30 03:21:52;;;;;;;17.93;16.07;;;15.70;99.90;;;;;;5019020;28;20233;-64
2021/08/30 03:24:21;;;;;;;17.73;15.93;;;15.70;99.90;;;;;;5018787;28;20585;-64
2021/08/30 03:26:50;;;;;;;17.97;16.10;;;15.80;99.90;;;;;;5023262;28;20278;-64
2021/08/30 03:29:20;;;;;;;19.33;16.20;;;15.80;99.90;;;;;;5018812;28;20224;-64
2021/08/30 03:31:50;;;;;;;19.73;17.03;;;15.80;99.90;;;;;;5023301;28;20267;-64
2021/08/30 03:34:19;;;;;;;18.30;16.00;;;15.80;99.90;;;;;;5013142;28;20235;-64
2021/08/30 03:36:48;;;;;;;19.53;17.50;;;15.80;99.90;;;;;;5022716;28;20233;-64
2021/08/30 03:39:18;;;;;;;19.50;17.47;;;15.80;99.90;;;;;;5028097;28;20239;-64
2021/08/30 03:41:50;;;;;;;18.77;16.97;;;15.80;99.90;;;;;;5021673;28;20333;-64
2021/08/30 03:44:19;;;;;;;19.43;16.87;;;15.70;99.90;;;;;;5017935;28;20324;-64
2021/08/30 03:46:47;;;;;;;23.10;16.93;;;15.70;99.90;;;;;;5021784;28;20267;-64
2021/08/30 03:49:15;;;;;;;18.87;16.90;;;15.60;99.90;;;;;;5018418;28;20239;-64
2021/08/30 03:51:44;;;;;;;19.13;17.10;;;15.60;99.90;;;;;;5021554;28;20240;-64
2021/08/30 03:54:12;;;;;;;19.10;17.10;;;15.50;99.90;;;;;;5023479;28;20264;-64
2021/08/30 03:56:43;;;;;;;20.40;18.20;;;15.50;99.90;;;;;;5017200;28;20236;-64
2021/08/30 03:59:12;;;;;;;18.13;16.23;;;15.50;99.90;;;;;;5021669;28;20286;-64
2021/08/30 04:01:42;;;;;;;18.27;16.27;;;15.40;99.90;;;;;;5021336;28;20260;-64
2021/08/30 04:04:15;;;;;;;20.87;16.77;;;15.50;99.90;;;;;;5019473;28;20240;-64
2021/08/30 04:06:45;;;;;;;18.77;16.67;;;15.60;99.90;;;;;;5024123;28;20275;-64
2021/08/30 04:09:17;;;;;;;19.63;17.23;;;15.50;99.90;;;;;;5023027;28;20244;-64
2021/08/30 04:11:47;;;;;;;19.07;16.90;;;15.40;99.90;;;;;;5022113;28;20791;-64
2021/08/30 04:14:16;;;;;;;19.50;17.40;;;15.40;99.90;;;;;;5019591;28;20785;-64
2021/08/30 04:16:46;;;;;;;23.43;18.07;;;15.40;99.90;;;;;;5022123;28;20258;-63
2021/08/30 04:19:14;;;;;;;20.23;17.93;;;15.30;99.90;;;;;;5018903;28;20240;-64
2021/08/30 04:21:43;;;;;;;19.40;17.40;;;15.30;99.90;;;;;;5014283;28;20548;-64
2021/08/30 04:24:11;;;;;;;19.80;17.70;;;15.30;99.90;;;;;;5020356;28;20236;-64
2021/08/30 04:26:39;;;;;;;22.63;17.30;;;15.30;99.90;;;;;;5021214;28;20267;-64
2021/08/30 04:29:09;;;;;;;19.63;17.63;;;15.30;99.90;;;;;;5024888;28;20295;-64
2021/08/30 04:31:37;;;;;;;18.77;16.93;;;15.30;99.90;;;;;;5023819;28;20320;-64
2021/08/30 04:34:05;;;;;;;20.67;17.97;;;15.40;99.90;;;;;;5022028;28;20236;-64
2021/08/30 04:36:34;;;;;;;18.50;16.57;;;15.40;99.90;;;;;;5025965;28;20236;-64
2021/08/30 04:39:02;;;;;;;20.80;17.53;;;15.40;99.90;;;;;;5021566;28;20720;-64
2021/08/30 04:41:30;;;;;;;21.57;18.27;;;15.40;99.90;;;;;;5019934;28;20263;-64
2021/08/30 04:43:59;;;;;;;22.03;18.60;;;15.40;99.90;;;;;;5024246;28;20241;-64
2021/08/30 04:46:29;;;;;;;21.13;17.97;;;15.40;99.90;;;;;;5024687;28;20232;-64
2021/08/30 04:48:57;;;;;;;24.50;19.50;;;15.40;99.90;;;;;;5017397;28;20263;-64
2021/08/30 04:51:25;;;;;;;20.90;17.70;;;15.40;99.90;;;;;;5023339;28;20984;-64
2021/08/30 04:53:53;;;;;;;21.13;18.83;;;15.50;99.90;;;;;;5021714;28;20252;-64
2021/08/30 04:56:21;;;;;;;20.07;17.93;;;15.50;99.90;;;;;;5024009;28;20228;-64
2021/08/30 04:58:49;;;;;;;21.00;18.53;;;15.50;99.90;;;;;;5022401;28;20266;-64
2021/08/30 05:01:17;;;;;;;24.13;19.37;;;15.50;99.90;;;;;;5011220;28;20697;-64
2021/08/30 05:03:47;;;;;;;20.70;18.27;;;15.50;99.90;;;;;;5013812;28;20725;-64
2021/08/30 05:06:15;;;;;;;22.43;18.73;;;15.50;99.90;;;;;;5025708;28;20585;-63
2021/08/30 05:08:43;;;;;;;21.23;18.93;;;15.50;99.90;;;;;;5023382;28;20594;-64
2021/08/30 05:11:11;;;;;;;25.83;18.13;;;15.50;99.90;;;;;;5021132;28;20236;-64
2021/08/30 05:13:39;;;;;;;20.57;18.07;;;15.50;99.90;;;;;;5022890;28;20339;-64
2021/08/30 05:16:07;;;;;;;19.47;17.40;;;15.60;99.90;;;;;;5029810;28;20593;-64
2021/08/30 05:18:39;;;;;;;22.47;18.40;;;15.60;99.90;;;;;;5027693;28;20240;-64
2021/08/30 05:21:09;;;;;;;20.57;17.87;;;15.70;99.90;;;;;;5026511;28;20244;-64
2021/08/30 05:23:42;;;;;;;19.83;17.73;;;15.70;99.90;;;;;;5021611;28;20294;-64
2021/08/30 05:26:10;;;;;;;20.13;17.97;;;15.70;99.90;;;;;;5022656;28;20749;-64
2021/08/30 05:28:38;;;;;;;21.20;18.60;;;15.70;99.90;;;;;;5045454;28;20324;-64
2021/08/30 05:31:06;;;;;;;24.77;18.60;;;15.70;99.90;;;;;;5029962;28;20343;-64
2021/08/30 05:33:36;;;;;;;22.50;18.07;;;15.70;99.90;;;;;;5020591;28;20239;-64
2021/08/30 05:36:05;;;;;;;19.57;17.47;;;15.70;99.90;;;;;;5024597;28;20241;-64
2021/08/30 05:38:35;;;;;;;22.30;17.90;;;15.70;99.90;;;;;;5027045;28;20251;-64
2021/08/30 05:41:03;;;;;;;21.97;19.57;;;15.80;99.90;;;;;;5028464;28;20332;-64
2021/08/30 05:43:31;;;;;;;21.47;17.83;;;15.80;99.90;;;;;;5025280;28;20237;-64
2021/08/30 05:45:59;;;;;;;23.50;19.50;;;15.80;99.90;;;;;;5025316;28;20256;-64
2021/08/30 05:48:27;;;;;;;20.63;18.43;;;15.90;99.90;;;;;;5026515;28;20258;-64
2021/08/30 05:50:55;;;;;;;21.77;18.17;;;16.00;99.90;;;;;;5024624;28;20240;-64
2021/08/30 05:53:23;;;;;;;22.30;18.73;;;16.00;99.90;;;;;;5024183;28;20577;-63
2021/08/30 05:55:52;;;;;;;24.37;19.50;;;16.10;99.90;;;;;;5023937;28;20324;-63
2021/08/30 05:58:21;;;;;;;23.33;18.73;;;16.10;99.90;;;;;;5026417;28;20232;-64
2021/08/30 06:00:49;;;;;;;22.73;18.83;;;16.20;99.90;;;;;;5026150;28;20709;-64
2021/08/30 06:03:18;;;;;;;20.77;18.57;;;16.20;99.90;;;;;;5021090;28;20233;-64
2021/08/30 06:05:46;;;;;;;29.90;18.30;;;16.20;99.90;;;;;;5027060;28;20361;-64
2021/08/30 06:08:14;;;;;;;22.23;18.20;;;16.20;99.90;;;;;;5028458;28;20220;-64
2021/08/30 06:10:42;;;;;;;21.23;19.13;;;16.30;99.90;;;;;;5026524;28;20245;-64
2021/08/30 06:13:11;;;;;;;19.60;17.50;;;16.40;99.90;;;;;;5022977;28;20237;-64
2021/08/30 06:15:39;;;;;;;20.33;17.50;;;16.40;99.90;;;;;;5026714;28;20259;-64
2021/08/30 06:18:08;;;;;;;21.23;17.40;;;16.50;99.90;;;;;;5028560;28;20367;-64
2021/08/30 06:20:36;;;;;;;20.67;17.20;;;16.50;99.90;;;;;;5027214;28;20267;-63
2021/08/30 06:23:04;;;;;;;18.57;16.33;;;16.50;99.90;;;;;;5024285;28;20225;-64
2021/08/30 06:25:32;;;;;;;20.77;16.50;;;16.60;99.90;;;;;;5026632;28;20256;-64
2021/08/30 06:28:00;;;;;;;20.47;17.20;;;16.70;99.90;;;;;;5022726;28;20251;-64
2021/08/30 06:30:30;;;;;;;20.37;16.63;;;16.80;99.90;;;;;;5025778;28;20775;-64
2021/08/30 06:32:58;;;;;;;19.03;15.37;;;16.90;99.90;;;;;;5016857;28;20240;-64
2021/08/30 06:35:28;;;;;;;18.27;16.23;;;16.90;99.90;;;;;;5022000;28;20239;-63
2021/08/30 06:37:56;;;;;;;16.83;14.63;;;17.00;99.90;;;;;;5022080;28;20271;-64
2021/08/30 06:40:24;;;;;;;17.63;14.60;;;17.10;99.90;;;;;;5023108;28;20311;-64
2021/08/30 06:42:53;;;;;;;18.10;15.63;;;17.10;99.90;;;;;;5027548;28;20518;-64
2021/08/30 06:45:23;;;;;;;17.30;15.47;;;17.20;99.90;;;;;;5026561;28;20229;-64
2021/08/30 06:47:52;;;;;;;16.57;14.63;;;17.20;99.90;;;;;;5019876;28;20260;-64
2021/08/30 06:50:21;;;;;;;16.03;14.20;;;17.20;99.90;;;;;;5026477;28;20233;-64
2021/08/30 06:52:49;;;;;;;17.93;14.40;;;17.30;99.90;;;;;;5023997;28;20324;-64
2021/08/30 06:55:18;;;;;;;17.77;14.27;;;17.30;99.90;;;;;;5014314;28;20323;-63
2021/08/30 06:57:47;;;;;;;16.60;14.83;;;17.30;99.90;;;;;;5024615;28;20244;-63
2021/08/30 07:00:17;;;;;;;16.47;14.47;;;17.40;99.90;;;;;;5008114;28;20433;-63
2021/08/30 07:02:46;;;;;;;17.57;14.07;;;17.40;99.90;;;;;;5007686;28;20294;-63
2021/08/30 07:05:15;;;;;;;15.10;13.60;;;17.50;99.90;;;;;;5002477;28;20235;-63
2021/08/30 07:07:43;;;;;;;19.03;13.17;;;17.50;99.90;;;;;;5008784;28;20237;-63
2021/08/30 07:10:12;;;;;;;15.90;13.87;;;17.70;99.90;;;;;;5000546;28;20244;-64
2021/08/30 07:12:40;;;;;;;13.70;12.30;;;17.90;99.90;;;;;;5001665;28;20240;-64
2021/08/30 07:15:09;;;;;;;17.40;13.73;;;18.00;99.90;;;;;;5008338;28;20368;-63
2021/08/30 07:17:37;;;;;;;13.30;12.00;;;17.90;99.90;;;;;;5003410;28;20234;-63
2021/08/30 07:20:05;;;;;;;17.33;12.30;;;18.00;99.90;;;;;;5009395;28;20238;-63
2021/08/30 07:22:35;;;;;;;13.40;11.77;;;18.10;99.90;;;;;;5005622;28;20642;-63
2021/08/30 07:25:04;;;;;;;14.53;13.00;;;18.20;99.90;;;;;;4998883;28;20824;-63
2021/08/30 07:27:32;;;;;;;13.40;11.97;;;18.20;99.90;;;;;;4993987;28;20244;-63
2021/08/30 07:30:00;;;;;;;13.03;11.77;;;18.20;99.90;;;;;;4993599;28;20619;-64
2021/08/30 07:32:28;;;;;;;13.13;11.73;;;18.20;99.90;;;;;;4992102;28;20416;-63
2021/08/30 07:34:56;;;;;;;12.93;11.63;;;18.30;99.90;;;;;;4992920;28;20749;-63
2021/08/30 07:37:24;;;;;;;12.70;11.40;;;18.30;99.90;;;;;;4994285;28;20228;-63
2021/08/30 07:39:54;;;;;;;13.93;11.33;;;18.40;99.90;;;;;;4994872;28;20246;-63
2021/08/30 07:42:22;;;;;;;12.53;11.03;;;18.50;99.90;;;;;;4994375;28;20883;-64
2021/08/30 07:44:51;;;;;;;12.93;10.60;;;18.50;99.90;;;;;;4989798;28;20250;-64
2021/08/30 07:47:19;;;;;;;14.67;10.60;;;18.50;99.90;;;;;;4996557;28;20602;-63
2021/08/30 07:49:47;;;;;;;10.80;9.60;;;18.60;99.90;;;;;;4996403;28;20357;-63
2021/08/30 07:52:15;;;;;;;11.97;10.63;;;18.70;99.90;;;;;;4994131;28;20671;-63
2021/08/30 07:54:43;;;;;;;12.97;10.50;;;18.80;99.90;;;;;;4991610;28;20909;-64
2021/08/30 07:57:12;;;;;;;11.30;9.80;;;18.80;99.90;;;;;;4994990;28;20232;-63
2021/08/30 07:59:40;;;;;;;12.03;10.47;;;18.90;99.90;;;;;;4996132;28;21385;-63
2021/08/30 08:02:08;;;;;;;12.60;10.17;;;18.90;99.90;;;;;;5005409;28;20537;-63
2021/08/30 08:04:37;;;;;;;12.17;10.33;;;19.00;99.90;;;;;;5000728;28;20330;-63
2021/08/30 08:07:05;;;;;;;11.30;10.10;;;19.10;99.90;;;;;;5002819;28;20644;-63
2021/08/30 08:09:33;;;;;;;10.90;9.80;;;19.00;99.90;;;;;;5009702;28;20231;-63
2021/08/30 08:12:01;;;;;;;12.03;10.10;;;19.10;99.90;;;;;;5007654;28;20253;-63
2021/08/30 08:14:31;;;;;;;11.20;10.10;;;19.00;99.90;;;;;;5005289;28;20253;-63
2021/08/30 08:16:59;;;;;;;12.17;9.70;;;19.10;99.90;;;;;;5005636;28;20786;-63
2021/08/30 08:19:27;;;;;;;10.73;9.67;;;18.80;99.90;;;;;;4996930;28;20763;-63
2021/08/30 08:22:01;;;;;;;11.73;9.03;;;18.80;99.90;;;;;;5010802;28;20239;-63
2021/08/30 08:24:30;;;;;;;10.87;9.70;;;18.80;99.90;;;;;;5005338;28;20246;-63
2021/08/30 08:26:59;;;;;;;10.70;9.30;;;18.90;99.90;;;;;;5015100;28;20242;-63
2021/08/30 08:29:30;;;;;;;14.00;9.03;;;19.10;99.90;;;;;;5020873;28;20730;-63
2021/08/30 08:31:59;;;;;;;10.27;8.83;;;19.80;99.90;;;;;;5021920;28;20267;-62
2021/08/30 08:34:27;;;;;;;10.37;8.23;;;20.10;99.90;;;;;;5022857;28;20238;-63
2021/08/30 08:36:58;;;;;;;10.97;9.37;;;20.00;99.90;;;;;;5016833;28;20738;-62
2021/08/30 08:39:27;;;;;;;10.73;8.60;;;19.80;99.90;;;;;;5025612;28;20616;-62
2021/08/30 08:41:55;;;;;;;9.50;8.50;;;19.80;99.90;;;;;;5021768;28;20234;-63
2021/08/30 08:44:23;;;;;;;9.00;8.13;;;19.80;99.90;;;;;;5022703;28;20273;-62
2021/08/30 08:46:52;;;;;;;9.57;8.57;;;19.80;99.90;;;;;;5017210;28;20569;-63
2021/08/30 08:49:21;;;;;;;9.07;8.17;;;19.80;99.90;;;;;;5018921;28;20336;-63
2021/08/30 08:51:50;;;;;;;10.93;9.07;;;20.10;99.90;;;;;;5013705;28;20241;-63
2021/08/30 08:54:18;;;;;;;9.33;8.37;;;20.40;99.90;;;;;;5018310;28;20267;-63
2021/08/30 08:56:46;;;;;;;8.90;8.00;;;20.90;99.90;;;;;;5023163;28;20243;-62
2021/08/30 08:59:14;;;;;;;8.80;7.90;;;21.30;99.90;;;;;;5022896;28;20255;-63
2021/08/30 09:01:56;;;;;;;8.07;7.27;;;21.60;99.90;;;;;;5016176;28;20239;-63
2021/08/30 09:04:32;;;;;;;7.87;7.07;;;21.70;99.90;;;;;;5013553;28;20263;-63
2021/08/30 09:07:12;;;;;;;8.37;7.47;;;21.60;99.90;;;;;;5018026;28;20262;-63
2021/08/30 09:09:41;;;;;;;8.20;7.40;;;21.20;99.90;;;;;;5018338;28;20373;-63
2021/08/30 09:12:21;;;;;;;8.13;7.37;;;21.10;99.90;;;;;;5022209;28;20676;-63
2021/08/30 09:14:51;;;;;;;7.90;7.07;;;20.90;99.90;;;;;;5021822;28;20326;-63
2021/08/30 09:17:19;;;;;;;8.97;7.20;;;20.90;99.90;;;;;;5023594;28;20235;-63
2021/08/30 09:19:53;;;;;;;7.40;6.63;;;21.10;99.90;;;;;;5019510;28;20336;-63
2021/08/30 09:22:34;;;;;;;7.70;6.83;;;21.00;99.90;;;;;;5013160;28;20728;-63
2021/08/30 09:25:06;;;;;;;8.20;7.20;;;20.90;99.90;;;;;;5023064;28;20248;-62
2021/08/30 09:27:35;;;;;;;9.40;6.77;;;20.80;99.90;;;;;;5046516;28;20325;-63
2021/08/30 09:30:05;;;;;;;9.20;7.77;;;20.70;99.90;;;;;;5045773;28;20235;-63
2021/08/30 09:32:35;;;;;;;12.57;7.57;;;20.40;99.90;;;;;;5046128;28;20246;-63
2021/08/30 09:35:05;;;;;;;8.13;7.33;;;20.10;99.90;;;;;;5045800;28;20223;-63
2021/08/30 09:37:38;;;;;;;8.13;7.13;;;20.00;99.90;;;;;;5046448;28;20238;-63
2021/08/30 09:40:08;;;;;;;7.87;7.00;;;20.20;99.90;;;;;;5046283;28;20652;-63
2021/08/30 09:42:41;;;;;;;9.23;6.97;;;20.10;99.90;;;;;;5046425;28;20702;-63
2021/08/30 09:45:11;;;;;;;8.00;7.03;;;20.10;99.90;;;;;;5045233;28;20253;-63
2021/08/30 09:47:50;;;;;;;8.20;7.40;;;20.20;99.90;;;;;;5045778;28;20690;-63
2021/08/30 09:50:19;;;;;;;8.40;6.83;;;20.20;99.90;;;;;;5040019;28;20337;-63
2021/08/30 09:52:47;;;;;;;7.70;6.57;;;20.10;99.90;;;;;;5025979;28;20240;-63
2021/08/30 09:55:16;;;;;;;7.87;6.57;;;20.00;99.90;;;;;;5026037;28;20230;-62
2021/08/30 09:57:49;;;;;;;8.00;7.20;;;20.00;99.90;;;;;;5026292;28;20243;-64
2021/08/30 10:00:19;;;;;;;7.53;6.87;;;20.00;99.90;;;;;;5023322;28;20321;-62
2021/08/30 10:02:50;;;;;;;9.57;6.97;;;20.00;99.90;;;;;;5039441;28;20239;-63
2021/08/30 10:05:20;;;;;;;7.17;6.37;;;19.90;99.90;;;;;;5026006;28;20235;-63
2021/08/30 10:07:49;;;;;;;8.90;6.90;;;19.70;99.90;;;;;;5021592;28;20740;-63
2021/08/30 10:10:18;;;;;;;8.37;6.83;;;19.70;99.90;;;;;;5016625;28;20636;-63
2021/08/30 10:12:48;;;;;;;8.17;7.20;;;19.50;99.90;;;;;;5022646;28;20718;-63
2021/08/30 10:15:20;;;;;;;8.20;6.83;;;19.40;99.90;;;;;;5016706;28;20727;-63
2021/08/30 10:17:49;;;;;;;7.37;6.70;;;19.50;99.90;;;;;;5021730;28;20239;-63
2021/08/30 10:20:25;;;;;;;7.97;7.00;;;19.50;99.90;;;;;;5018183;28;20244;-63
2021/08/30 10:22:58;;;;;;;7.17;6.57;;;19.70;99.90;;;;;;5021449;28;20298;-63
2021/08/30 10:25:26;;;;;;;8.20;6.87;;;19.80;99.90;;;;;;5020383;28;20344;-63
2021/08/30 10:27:57;;;;;;;8.33;7.27;;;19.80;99.90;;;;;;5022035;28;20243;-63
2021/08/30 10:30:25;;;;;;;7.27;6.57;;;19.80;99.90;;;;;;5023303;28;20298;-63
2021/08/30 10:32:56;;;;;;;9.47;7.13;;;19.80;99.90;;;;;;5014016;28;20237;-63
2021/08/30 10:35:29;;;;;;;7.83;6.77;;;19.70;99.90;;;;;;5022099;28;20305;-64
2021/08/30 10:38:00;;;;;;;8.50;6.90;;;19.80;99.90;;;;;;5022635;28;20247;-63
2021/08/30 10:40:31;;;;;;;7.57;6.63;;;19.70;99.90;;;;;;5023708;28;20295;-63
2021/08/30 10:43:08;;;;;;;8.57;6.93;;;19.60;99.90;;;;;;5025320;28;20518;-63
2021/08/30 10:45:42;;;;;;;8.23;6.80;;;19.50;99.90;;;;;;5046226;28;20474;-63
2021/08/30 10:48:12;;;;;;;8.60;7.40;;;19.40;99.90;;;;;;5048645;28;20243;-64
2021/08/30 10:50:44;;;;;;;8.10;7.30;;;19.30;99.90;;;;;;5049830;28;20246;-63
2021/08/30 10:53:17;;;;;;;7.93;6.70;;;19.40;99.90;;;;;;5049636;28;20314;-64
2021/08/30 10:55:47;;;;;;;7.50;6.63;;;19.40;99.90;;;;;;5051958;28;20248;-63
2021/08/30 10:58:19;;;;;;;7.47;6.77;;;19.50;99.90;;;;;;5049556;28;20242;-63
2021/08/30 11:00:58;;;;;;;7.80;6.00;;;19.50;99.90;;;;;;2399291;28;10022678;-63
2021/08/30 11:03:29;;;;;;;7.20;6.37;;;19.60;99.90;;;;;;4001069;28;10001328;-63
2021/08/30 11:06:05;;;;;;;7.27;6.17;;;19.70;99.90;;;;;;5043729;28;20230;-64
2021/08/30 11:08:34;;;;;;;6.73;6.13;;;19.80;99.90;;;;;;5032438;28;20324;-64
2021/08/30 11:11:14;;;;;;;7.57;6.87;;;19.70;99.90;;;;;;5024719;28;20244;-63
2021/08/30 11:14:03;;;;;;;6.90;6.20;;;19.80;99.90;;;;;;5043747;28;20238;-63
2021/08/30 11:16:33;;;;;;;7.40;6.60;;;20.00;99.90;;;;;;5048558;28;20458;-63
2021/08/30 11:19:04;;;;;;;7.30;6.60;;;19.90;99.90;;;;;;5048285;28;20325;-63
2021/08/30 11:21:46;;;;;;;7.57;6.33;;;20.00;99.90;;;;;;5048043;28;20655;-63
2021/08/30 11:24:26;;;;;;;6.87;6.23;;;19.80;99.90;;;;;;5047478;28;20589;-63
2021/08/30 11:26:57;;;;;;;8.87;6.50;;;19.70;99.90;;;;;;5042672;28;20261;-63
2021/08/30 11:29:25;;;;;;;8.63;6.97;;;19.80;99.90;;;;;;5009191;28;21337;-63
2021/08/30 11:31:53;;;;;;;7.27;6.47;;;19.70;99.90;;;;;;5013122;28;20247;-63
2021/08/30 11:34:27;;;;;;;6.60;6.00;;;19.70;99.90;;;;;;5005796;28;20259;-63
2021/08/30 11:36:58;;;;;;;7.20;6.20;;;19.70;99.90;;;;;;5008513;28;20386;-63
2021/08/30 11:39:28;;;;;;;6.77;5.87;;;19.80;99.90;;;;;;5010679;28;20737;-63
2021/08/30 11:41:59;;;;;;;7.10;6.10;;;20.00;99.90;;;;;;5022268;28;20258;-63
2021/08/30 11:44:29;;;;;;;9.17;6.90;;;20.20;99.90;;;;;;5018596;28;20240;-63
2021/08/30 11:47:00;;;;;;;9.13;6.53;;;20.30;99.90;;;;;;5016461;28;20232;-63
2021/08/30 11:49:30;;;;;;;6.73;6.10;;;20.30;99.90;;;;;;5028055;28;20612;-64
2021/08/30 11:52:02;;;;;;;6.80;6.10;;;20.20;99.90;;;;;;5022554;28;20337;-63
2021/08/30 11:54:32;;;;;;;7.37;6.60;;;20.00;99.90;;;;;;5029804;28;20374;-63
2021/08/30 11:57:05;;;;;;;6.40;5.80;;;20.00;99.90;;;;;;5021976;28;20758;-63
2021/08/30 11:59:36;;;;;;;6.93;6.30;;;19.90;99.90;;;;;;5024928;28;20326;-63
2021/08/30 12:02:07;;;;;;;7.37;6.67;;;19.80;99.90;;;;;;5025472;28;20270;-63
2021/08/30 12:04:38;;;;;;;7.80;7.00;;;19.80;99.90;;;;;;5014882;28;20607;-64
2021/08/30 12:07:09;;;;;;;7.70;7.00;;;19.60;99.90;;;;;;5006983;28;20247;-63
2021/08/30 12:09:41;;;;;;;7.80;6.83;;;19.50;99.90;;;;;;5017146;28;20241;-63
2021/08/30 12:12:16;;;;;;;8.43;6.97;;;19.40;99.90;;;;;;5007229;28;20752;-63
2021/08/30 12:14:59;;;;;;;7.63;6.93;;;19.50;99.90;;;;;;5011474;28;20270;-63
2021/08/30 12:17:29;;;;;;;8.83;7.03;;;19.40;99.90;;;;;;5004898;28;20255;-63
2021/08/30 12:19:59;;;;;;;8.43;7.53;;;19.40;99.90;;;;;;5003944;28;20687;-64
2021/08/30 12:22:31;;;;;;;8.57;7.27;;;19.50;99.90;;;;;;5010724;28;20271;-63
2021/08/30 12:25:06;;;;;;;7.73;6.93;;;19.60;99.90;;;;;;5005417;28;20286;-64
2021/08/30 12:27:36;;;;;;;9.23;6.57;;;19.80;99.90;;;;;;5003502;28;20691;-64
2021/08/30 12:30:11;;;;;;;7.53;6.57;;;19.90;99.90;;;;;;5004121;28;20593;-64
2021/08/30 12:32:54;;;;;;;9.73;7.23;;;20.10;99.90;;;;;;5008505;28;20248;-63
2021/08/30 12:35:25;;;;;;;7.47;6.60;;;20.20;99.90;;;;;;5008770;28;20612;-64
2021/08/30 12:37:57;;;;;;;8.50;6.80;;;20.40;99.90;;;;;;5025128;28;20244;-63
2021/08/30 12:40:26;;;;;;;7.07;6.43;;;20.50;99.90;;;;;;5004112;28;20649;-64
2021/08/30 12:42:55;;;;;;;13.30;6.60;;;20.70;99.90;;;;;;5005848;28;20240;-63
2021/08/30 12:45:23;;;;;;;7.23;6.53;;;20.70;99.90;;;;;;5001989;28;20232;-63
2021/08/30 12:47:51;;;;;;;8.17;7.37;;;20.80;99.90;;;;;;5006799;28;20699;-63
2021/08/30 12:50:21;;;;;;;8.13;6.53;;;20.80;99.90;;;;;;5010912;28;20239;-63